»·PEaware :: WJA7447 KSEA-KPDX

WJA7447 :: KSEA-KPDX

FLIGHT INFORMATION

Flight Status: Arrived
Operator:
Westjet Airlines
More flights by this operator :: More flights under this callsign
Pilot: Anonymous 30260 (30260)
Aircraft: BOEING 737-300
(B733)
More flights by this aircraft type
Origin: KSEA Seattle-Tacoma Intl
United States
Destination: KPDX Portland Intl
United States
More flights between these airports :: More routes between these airports
Route: +SEA7 SEA BUWZO KRATR2
File this flight plan on PilotEdge
Remarks:
Altitude:
(Current/Filed)
19,000ft
Speed:
(Current/Filed)
401kts
Departed: 04-Nov-20 02:15 PM
Arrived: 04-Nov-20 02:46 PM
Distance/Time
Traveled:
111nm/0:31
Distance/Time
To Go:
Arrived

Flight Plot

Page will automatically refresh every two minutes.

Flight plan parsing failed; only flown route is shown


Map Options




Map Legend


Flown Route
Filed Route
Departure Airport
Arrival Airport
Navaid (VOR, NDB)
Fix

Horizontal Profiles

Position Reports

Time Latitude Longitude Heading Altitude Ground
Speed
04-Nov-20 13:40 47.440611 -122.304233 42 378ft 0kts
04-Nov-20 13:41 47.440611 -122.304233 42 378ft 0kts
04-Nov-20 13:42 47.440611 -122.304233 42 378ft 0kts
04-Nov-20 13:43 47.440611 -122.304233 42 378ft 0kts
04-Nov-20 13:44 47.440611 -122.304233 42 378ft 0kts
04-Nov-20 13:45 47.440611 -122.304233 42 378ft 0kts
04-Nov-20 13:46 47.440611 -122.304233 42 378ft 0kts
04-Nov-20 13:47 47.440611 -122.304233 42 378ft 0kts
04-Nov-20 13:48 47.440611 -122.304233 42 378ft 0kts
04-Nov-20 13:49 47.440611 -122.304233 42 378ft 0kts
04-Nov-20 13:50 47.440611 -122.304233 42 378ft 0kts
04-Nov-20 13:51 47.440611 -122.304233 42 378ft 0kts
04-Nov-20 13:52 47.440611 -122.304233 42 378ft 0kts
04-Nov-20 13:53 47.440611 -122.304233 42 378ft 0kts
04-Nov-20 13:54 47.440611 -122.304233 42 378ft 0kts
04-Nov-20 13:55 47.440611 -122.304233 42 378ft 0kts
04-Nov-20 13:56 47.440611 -122.304233 42 378ft 0kts
04-Nov-20 13:57 47.440611 -122.304233 42 378ft 0kts
04-Nov-20 13:58 47.440611 -122.304233 42 378ft 0kts
04-Nov-20 13:59 47.440611 -122.304233 42 378ft 0kts
04-Nov-20 14:00 47.440611 -122.304233 42 378ft 0kts
04-Nov-20 14:01 47.440611 -122.304233 42 378ft 0kts
04-Nov-20 14:02 47.440609 -122.304236 42 378ft 0kts
04-Nov-20 14:03 47.440072 -122.304349 326 376ft 2kts
04-Nov-20 14:04 47.439878 -122.303768 269 376ft 0kts
04-Nov-20 14:05 47.439878 -122.303769 269 376ft 0kts
04-Nov-20 14:06 47.439912 -122.305844 279 374ft 8kts
04-Nov-20 14:07 47.441202 -122.306354 0 379ft 4kts
04-Nov-20 14:08 47.444105 -122.306317 0 388ft 15kts
04-Nov-20 14:09 47.449469 -122.306254 0 405ft 17kts
04-Nov-20 14:10 47.453546 -122.306222 0 425ft 12kts
04-Nov-20 14:11 47.457260 -122.306184 0 438ft 15kts
04-Nov-20 14:12 47.462617 -122.306136 0 426ft 12kts
04-Nov-20 14:13 47.461844 -122.307777 180 422ft 21kts
04-Nov-20 14:14 47.429812 -122.307983 181 1327ft 160kts
04-Nov-20 14:15 47.378523 -122.307013 180 3350ft 197kts
04-Nov-20 14:16 47.313550 -122.303528 180 5692ft 237kts
04-Nov-20 14:17 47.245947 -122.304263 185 8567ft 246kts
04-Nov-20 14:18 47.170431 -122.306005 185 10835ft 284kts
04-Nov-20 14:19 47.082022 -122.307442 186 13941ft 295kts
04-Nov-20 14:20 46.992466 -122.308894 188 16760ft 309kts
04-Nov-20 14:21 46.897694 -122.309629 189 18955ft 334kts
04-Nov-20 14:22 46.794810 -122.309498 189 19125ft 361kts
04-Nov-20 14:23 46.687208 -122.309472 189 19127ft 361kts
04-Nov-20 14:24 46.582316 -122.309447 189 19124ft 360kts
04-Nov-20 14:25 46.477113 -122.309428 189 19138ft 360kts
04-Nov-20 14:26 46.369559 -122.309408 189 19070ft 361kts
04-Nov-20 14:27 46.263953 -122.309709 192 16704ft 342kts
04-Nov-20 14:28 46.174008 -122.355840 206 14243ft 314kts
04-Nov-20 14:29 46.088158 -122.403632 205 12120ft 305kts
04-Nov-20 14:30 46.005963 -122.447996 204 10445ft 286kts
04-Nov-20 14:31 45.929451 -122.489255 204 8399ft 287kts
04-Nov-20 14:32 45.854564 -122.531378 203 6359ft 288kts
04-Nov-20 14:33 45.782457 -122.571885 203 4984ft 250kts
04-Nov-20 14:34 45.763814 -122.649121 275 5008ft 218kts
04-Nov-20 14:35 45.774064 -122.734326 274 4974ft 219kts
04-Nov-20 14:36 45.784522 -122.820117 275 4823ft 225kts
04-Nov-20 14:37 45.770447 -122.892625 205 3986ft 177kts
04-Nov-20 14:38 45.725154 -122.892746 145 3632ft 167kts
04-Nov-20 14:39 45.689159 -122.851211 143 2988ft 155kts
04-Nov-20 14:40 45.662687 -122.794867 128 2490ft 147kts
04-Nov-20 14:41 45.642149 -122.741642 128 1759ft 145kts
04-Nov-20 14:42 45.621022 -122.687540 124 1092ft 149kts
04-Nov-20 14:43 45.599249 -122.631994 121 219ft 145kts
04-Nov-20 14:44 45.585153 -122.595905 120 20ft 48kts
04-Nov-20 14:45 45.585520 -122.593543 299 23ft 11kts
04-Nov-20 14:46 45.587444 -122.596686 64 22ft 5kts
04-Nov-20 14:47 45.586917 -122.594274 38 23ft 6kts
04-Nov-20 14:48 45.587433 -122.593859 24 23ft 0kts
04-Nov-20 14:49 45.587433 -122.593859 24 23ft 0kts
04-Nov-20 14:50 45.587433 -122.593859 24 23ft 0kts
04-Nov-20 14:51 45.587433 -122.593859 24 23ft 0kts
04-Nov-20 14:52 45.587433 -122.593859 24 23ft 0kts
04-Nov-20 14:53 45.607689 -122.653633 122 557ft 151kts

Navigation Log

Ident Type
Flight plan parsing failed, navigation log unavailable